sensor_id;sensor_type;location;lat;lon;timestamp;pressure;altitude;pressure_sealevel;temperature;humidity
58769;BME280;44536;47.474;19.056;2023-04-26T00:00:45;99800.59;;;8.91;81.78
58769;BME280;44536;47.474;19.056;2023-04-26T00:03:48;99816.94;;;8.96;81.60
58769;BME280;44536;47.474;19.056;2023-04-26T00:06:50;99803.37;;;9.01;80.88
58769;BME280;44536;47.474;19.056;2023-04-26T00:09:53;99803.97;;;9.04;81.31
58769;BME280;44536;47.474;19.056;2023-04-26T00:12:55;99810.81;;;9.07;81.23
58769;BME280;44536;47.474;19.056;2023-04-26T00:15:57;99811.66;;;9.07;81.58
58769;BME280;44536;47.474;19.056;2023-04-26T00:19:00;99808.19;;;9.07;81.36
58769;BME280;44536;47.474;19.056;2023-04-26T00:22:03;99803.97;;;9.04;82.76
58769;BME280;44536;47.474;19.056;2023-04-26T00:25:06;99811.53;;;9.09;82.41
58769;BME280;44536;47.474;19.056;2023-04-26T00:28:09;99820.31;;;9.20;81.17
58769;BME280;44536;47.474;19.056;2023-04-26T00:31:15;99826.81;;;9.16;81.31
58769;BME280;44536;47.474;19.056;2023-04-26T00:34:18;99822.84;;;9.22;81.61
58769;BME280;44536;47.474;19.056;2023-04-26T00:37:21;99826.94;;;9.15;81.33
58769;BME280;44536;47.474;19.056;2023-04-26T00:40:24;99838.59;;;9.23;81.00
58769;BME280;44536;47.474;19.056;2023-04-26T00:43:27;99844.47;;;9.16;81.52
58769;BME280;44536;47.474;19.056;2023-04-26T00:46:30;99835.00;;;9.13;81.14
58769;BME280;44536;47.474;19.056;2023-04-26T00:49:32;99844.47;;;9.05;80.83
58769;BME280;44536;47.474;19.056;2023-04-26T00:52:35;99849.41;;;9.09;80.99
58769;BME280;44536;47.474;19.056;2023-04-26T00:55:38;99837.75;;;9.01;81.15
58769;BME280;44536;47.474;19.056;2023-04-26T00:58:40;99841.22;;;8.90;81.39
58769;BME280;44536;47.474;19.056;2023-04-26T01:01:42;99838.47;;;8.80;82.81
58769;BME280;44536;47.474;19.056;2023-04-26T01:04:45;99835.56;;;8.72;82.20
58769;BME280;44536;47.474;19.056;2023-04-26T01:07:49;99838.06;;;8.62;82.40
58769;BME280;44536;47.474;19.056;2023-04-26T01:10:52;99848.37;;;8.54;82.74
58769;BME280;44536;47.474;19.056;2023-04-26T01:13:55;99845.00;;;8.52;82.20
58769;BME280;44536;47.474;19.056;2023-04-26T01:16:58;99845.97;;;8.51;82.01
58769;BME280;44536;47.474;19.056;2023-04-26T01:20:01;99855.91;;;8.48;82.35
58769;BME280;44536;47.474;19.056;2023-04-26T01:23:03;99845.69;;;8.43;82.52
58769;BME280;44536;47.474;19.056;2023-04-26T01:26:06;99853.84;;;8.40;82.72
58769;BME280;44536;47.474;19.056;2023-04-26T01:29:13;99861.47;;;8.32;83.37
58769;BME280;44536;47.474;19.056;2023-04-26T01:32:16;99869.66;;;8.29;83.12
58769;BME280;44536;47.474;19.056;2023-04-26T01:35:18;99868.53;;;8.20;83.73
58769;BME280;44536;47.474;19.056;2023-04-26T01:38:22;99876.44;;;8.20;83.81
58769;BME280;44536;47.474;19.056;2023-04-26T01:41:24;99876.91;;;8.14;84.10
58769;BME280;44536;47.474;19.056;2023-04-26T01:44:26;99870.38;;;8.07;84.35
58769;BME280;44536;47.474;19.056;2023-04-26T01:47:29;99876.72;;;8.05;84.17
58769;BME280;44536;47.474;19.056;2023-04-26T01:50:31;99877.69;;;8.04;84.18
58769;BME280;44536;47.474;19.056;2023-04-26T01:53:34;99874.72;;;8.08;83.74
58769;BME280;44536;47.474;19.056;2023-04-26T01:56:38;99890.66;;;8.07;83.90
58769;BME280;44536;47.474;19.056;2023-04-26T01:59:40;99887.75;;;7.98;83.85
58769;BME280;44536;47.474;19.056;2023-04-26T02:02:43;99881.00;;;7.94;83.57
58769;BME280;44536;47.474;19.056;2023-04-26T02:05:46;99892.84;;;7.89;84.41
58769;BME280;44536;47.474;19.056;2023-04-26T02:08:48;99883.22;;;7.88;83.69
58769;BME280;44536;47.474;19.056;2023-04-26T02:11:51;99893.47;;;7.92;83.62
58769;BME280;44536;47.474;19.056;2023-04-26T02:14:53;99901.09;;;7.84;83.85
58769;BME280;44536;47.474;19.056;2023-04-26T02:17:55;99904.19;;;7.78;84.42
58769;BME280;44536;47.474;19.056;2023-04-26T02:20:58;99900.19;;;7.73;84.56
58769;BME280;44536;47.474;19.056;2023-04-26T02:24:00;99899.25;;;7.74;84.45
58769;BME280;44536;47.474;19.056;2023-04-26T02:27:04;99906.44;;;7.72;84.76
58769;BME280;44536;47.474;19.056;2023-04-26T02:30:09;99905.81;;;7.68;83.91
58769;BME280;44536;47.474;19.056;2023-04-26T02:33:11;99912.88;;;7.68;83.74
58769;BME280;44536;47.474;19.056;2023-04-26T02:36:13;99906.66;;;7.69;83.61
58769;BME280;44536;47.474;19.056;2023-04-26T02:39:16;99904.34;;;7.64;84.27
58769;BME280;44536;47.474;19.056;2023-04-26T02:42:18;99913.31;;;7.61;84.17
58769;BME280;44536;47.474;19.056;2023-04-26T02:45:21;99908.97;;;7.60;84.03
58769;BME280;44536;47.474;19.056;2023-04-26T02:48:23;99907.06;;;7.62;83.88
58769;BME280;44536;47.474;19.056;2023-04-26T02:51:26;99915.31;;;7.58;84.06
58769;BME280;44536;47.474;19.056;2023-04-26T02:54:28;99907.50;;;7.56;84.08
58769;BME280;44536;47.474;19.056;2023-04-26T02:57:31;99924.72;;;7.49;84.02
58769;BME280;44536;47.474;19.056;2023-04-26T03:00:34;99931.06;;;7.47;83.35
58769;BME280;44536;47.474;19.056;2023-04-26T03:03:36;99934.53;;;7.47;83.28
58769;BME280;44536;47.474;19.056;2023-04-26T03:06:39;99929.03;;;7.50;82.80
58769;BME280;44536;47.474;19.056;2023-04-26T03:09:42;99931.06;;;7.47;82.95
58769;BME280;44536;47.474;19.056;2023-04-26T03:12:44;99939.41;;;7.41;83.20
58769;BME280;44536;47.474;19.056;2023-04-26T03:15:46;99946.88;;;7.47;82.06
58769;BME280;44536;47.474;19.056;2023-04-26T03:18:49;99955.84;;;7.44;82.18
58769;BME280;44536;47.474;19.056;2023-04-26T03:21:52;99955.00;;;7.44;82.05
58769;BME280;44536;47.474;19.056;2023-04-26T03:24:55;99960.19;;;7.45;81.03
58769;BME280;44536;47.474;19.056;2023-04-26T03:27:58;99962.91;;;7.44;80.97
58769;BME280;44536;47.474;19.056;2023-04-26T03:31:01;99965.66;;;7.42;81.35
58769;BME280;44536;47.474;19.056;2023-04-26T03:34:04;99981.59;;;7.41;81.35
58769;BME280;44536;47.474;19.056;2023-04-26T03:37:06;99978.63;;;7.32;82.22
58769;BME280;44536;47.474;19.056;2023-04-26T03:40:10;99976.00;;;7.32;82.11
58769;BME280;44536;47.474;19.056;2023-04-26T03:43:13;99979.78;;;7.28;81.54
58769;BME280;44536;47.474;19.056;2023-04-26T03:46:15;99982.56;;;7.27;81.84
58769;BME280;44536;47.474;19.056;2023-04-26T03:49:19;99983.28;;;7.29;81.33
58769;BME280;44536;47.474;19.056;2023-04-26T03:52:22;99977.06;;;7.30;81.33
58769;BME280;44536;47.474;19.056;2023-04-26T03:55:25;99981.09;;;7.23;81.70
58769;BME280;44536;47.474;19.056;2023-04-26T03:58:27;99987.94;;;7.25;81.50
58769;BME280;44536;47.474;19.056;2023-04-26T04:01:30;99985.06;;;7.28;81.28
58769;BME280;44536;47.474;19.056;2023-04-26T04:04:33;99990.91;;;7.21;81.91
58769;BME280;44536;47.474;19.056;2023-04-26T04:07:35;99996.47;;;7.29;80.79
58769;BME280;44536;47.474;19.056;2023-04-26T04:10:38;100006.31;;;7.27;81.31
58769;BME280;44536;47.474;19.056;2023-04-26T04:13:40;100010.50;;;7.29;81.21
58769;BME280;44536;47.474;19.056;2023-04-26T04:16:43;100013.56;;;7.36;82.21
58769;BME280;44536;47.474;19.056;2023-04-26T04:19:45;100008.50;;;7.33;80.64
58769;BME280;44536;47.474;19.056;2023-04-26T04:22:48;100010.59;;;7.41;79.66
58769;BME280;44536;47.474;19.056;2023-04-26T04:25:50;100012.50;;;7.51;78.81
58769;BME280;44536;47.474;19.056;2023-04-26T04:28:55;100002.06;;;7.62;77.65
58769;BME280;44536;47.474;19.056;2023-04-26T04:31:58;100027.94;;;7.70;77.31
58769;BME280;44536;47.474;19.056;2023-04-26T04:35:01;100018.97;;;7.73;78.02
58769;BME280;44536;47.474;19.056;2023-04-26T04:38:04;100034.56;;;7.76;78.27
58769;BME280;44536;47.474;19.056;2023-04-26T04:41:07;100030.25;;;7.75;76.99
58769;BME280;44536;47.474;19.056;2023-04-26T04:44:10;100043.63;;;7.84;76.80
58769;BME280;44536;47.474;19.056;2023-04-26T04:47:13;100047.28;;;8.20;75.23
58769;BME280;44536;47.474;19.056;2023-04-26T04:50:16;100049.31;;;8.53;73.56
58769;BME280;44536;47.474;19.056;2023-04-26T04:53:18;100051.25;;;8.38;73.45
58769;BME280;44536;47.474;19.056;2023-04-26T04:56:21;100050.75;;;8.33;73.78
58769;BME280;44536;47.474;19.056;2023-04-26T04:59:24;100071.31;;;8.41;73.06
58769;BME280;44536;47.474;19.056;2023-04-26T05:02:26;100072.66;;;8.59;72.51
58769;BME280;44536;47.474;19.056;2023-04-26T05:05:29;100078.06;;;8.81;70.87
58769;BME280;44536;47.474;19.056;2023-04-26T05:08:32;100080.97;;;8.89;71.17
58769;BME280;44536;47.474;19.056;2023-04-26T05:11:35;100088.25;;;8.75;71.48
58769;BME280;44536;47.474;19.056;2023-04-26T05:14:38;100085.34;;;8.54;72.17
58769;BME280;44536;47.474;19.056;2023-04-26T05:17:42;100086.22;;;8.42;73.11
58769;BME280;44536;47.474;19.056;2023-04-26T05:20:44;100088.50;;;8.59;72.12
58769;BME280;44536;47.474;19.056;2023-04-26T05:23:47;100093.63;;;8.97;70.59
58769;BME280;44536;47.474;19.056;2023-04-26T05:26:50;100085.25;;;9.38;67.37
58769;BME280;44536;47.474;19.056;2023-04-26T05:29:54;100096.41;;;9.66;66.13
58769;BME280;44536;47.474;19.056;2023-04-26T05:32:56;100092.59;;;10.14;64.33
58769;BME280;44536;47.474;19.056;2023-04-26T05:35:59;100095.94;;;9.72;64.53
58769;BME280;44536;47.474;19.056;2023-04-26T05:39:02;100095.00;;;10.17;65.71
58769;BME280;44536;47.474;19.056;2023-04-26T05:42:08;100106.06;;;10.78;59.57
58769;BME280;44536;47.474;19.056;2023-04-26T05:45:11;100100.59;;;12.37;53.69
58769;BME280;44536;47.474;19.056;2023-04-26T05:48:14;100105.22;;;13.62;48.66
58769;BME280;44536;47.474;19.056;2023-04-26T05:51:17;100105.75;;;15.75;43.23
58769;BME280;44536;47.474;19.056;2023-04-26T05:54:20;100109.09;;;17.37;38.64
58769;BME280;44536;47.474;19.056;2023-04-26T05:57:23;100117.25;;;17.03;38.19
58769;BME280;44536;47.474;19.056;2023-04-26T06:00:26;100118.16;;;17.85;36.83
58769;BME280;44536;47.474;19.056;2023-04-26T06:03:29;100121.78;;;17.19;37.50
58769;BME280;44536;47.474;19.056;2023-04-26T06:06:32;100122.56;;;16.45;38.24
58769;BME280;44536;47.474;19.056;2023-04-26T06:09:35;100129.50;;;17.14;37.69
58769;BME280;44536;47.474;19.056;2023-04-26T06:12:37;100127.00;;;17.29;37.22
58769;BME280;44536;47.474;19.056;2023-04-26T06:15:43;100133.31;;;16.95;36.81
58769;BME280;44536;47.474;19.056;2023-04-26T06:18:46;100134.88;;;17.30;35.62
58769;BME280;44536;47.474;19.056;2023-04-26T06:21:49;100142.28;;;17.44;35.73
58769;BME280;44536;47.474;19.056;2023-04-26T06:24:53;100154.44;;;18.36;34.37
58769;BME280;44536;47.474;19.056;2023-04-26T06:27:57;100146.09;;;16.67;35.55
58769;BME280;44536;47.474;19.056;2023-04-26T06:31:00;100155.72;;;16.26;37.08
58769;BME280;44536;47.474;19.056;2023-04-26T06:34:04;100144.59;;;17.39;35.99
58769;BME280;44536;47.474;19.056;2023-04-26T06:37:06;100140.31;;;16.88;35.76
58769;BME280;44536;47.474;19.056;2023-04-26T06:40:11;100152.50;;;17.49;35.26
58769;BME280;44536;47.474;19.056;2023-04-26T06:43:17;100144.59;;;17.39;35.35
58769;BME280;44536;47.474;19.056;2023-04-26T06:46:20;100147.00;;;16.84;35.69
58769;BME280;44536;47.474;19.056;2023-04-26T06:49:25;100143.47;;;18.07;34.94
58769;BME280;44536;47.474;19.056;2023-04-26T06:52:27;100153.41;;;19.55;31.62
58769;BME280;44536;47.474;19.056;2023-04-26T06:55:30;100156.53;;;17.85;33.67
58769;BME280;44536;47.474;19.056;2023-04-26T06:58:35;100146.31;;;17.57;35.14
58769;BME280;44536;47.474;19.056;2023-04-26T07:01:37;100140.34;;;19.21;32.59
58769;BME280;44536;47.474;19.056;2023-04-26T07:04:40;100142.37;;;19.87;30.83
58769;BME280;44536;47.474;19.056;2023-04-26T07:07:42;100143.25;;;20.02;30.21
58769;BME280;44536;47.474;19.056;2023-04-26T07:10:45;100160.66;;;19.23;30.61
58769;BME280;44536;47.474;19.056;2023-04-26T07:13:48;100155.03;;;17.99;32.24
58769;BME280;44536;47.474;19.056;2023-04-26T07:16:50;100145.81;;;19.27;31.08
58769;BME280;44536;47.474;19.056;2023-04-26T07:19:53;100158.31;;;18.34;31.26
58769;BME280;44536;47.474;19.056;2023-04-26T07:22:57;100158.25;;;16.96;32.34
58769;BME280;44536;47.474;19.056;2023-04-26T07:25:59;100159.16;;;17.29;32.68
58769;BME280;44536;47.474;19.056;2023-04-26T07:29:06;100153.25;;;16.33;34.18
58769;BME280;44536;47.474;19.056;2023-04-26T07:32:08;100157.00;;;16.74;33.81
58769;BME280;44536;47.474;19.056;2023-04-26T07:35:11;100163.31;;;15.87;34.19
58769;BME280;44536;47.474;19.056;2023-04-26T07:38:17;100167.56;;;15.09;34.48
58769;BME280;44536;47.474;19.056;2023-04-26T07:41:20;100173.69;;;15.01;35.57
58769;BME280;44536;47.474;19.056;2023-04-26T07:44:23;100177.72;;;14.50;35.01
58769;BME280;44536;47.474;19.056;2023-04-26T07:47:25;100180.09;;;13.97;37.29
58769;BME280;44536;47.474;19.056;2023-04-26T07:50:27;100194.75;;;14.30;35.88
58769;BME280;44536;47.474;19.056;2023-04-26T07:53:30;100181.62;;;13.90;36.65
58769;BME280;44536;47.474;19.056;2023-04-26T07:56:32;100195.81;;;13.62;36.17
58769;BME280;44536;47.474;19.056;2023-04-26T07:59:35;100190.81;;;12.59;38.31
58769;BME280;44536;47.474;19.056;2023-04-26T08:02:38;100192.19;;;12.53;39.10
58769;BME280;44536;47.474;19.056;2023-04-26T08:05:46;100187.91;;;12.72;40.47
58769;BME280;44536;47.474;19.056;2023-04-26T08:08:49;100206.00;;;12.78;40.19
58769;BME280;44536;47.474;19.056;2023-04-26T08:11:55;100201.56;;;12.88;39.60
58769;BME280;44536;47.474;19.056;2023-04-26T08:15:01;100202.63;;;12.76;40.37
58769;BME280;44536;47.474;19.056;2023-04-26T08:18:04;100196.13;;;12.59;41.05
58769;BME280;44536;47.474;19.056;2023-04-26T08:21:26;100200.53;;;12.39;41.24
58769;BME280;44536;47.474;19.056;2023-04-26T08:24:29;100205.28;;;11.94;42.21
58769;BME280;44536;47.474;19.056;2023-04-26T08:27:31;100225.03;;;12.01;41.52
58769;BME280;44536;47.474;19.056;2023-04-26T08:30:35;100222.44;;;11.26;42.07
58769;BME280;44536;47.474;19.056;2023-04-26T08:33:37;100220.75;;;11.25;43.42
58769;BME280;44536;47.474;19.056;2023-04-26T08:36:40;100219.22;;;11.00;42.18
58769;BME280;44536;47.474;19.056;2023-04-26T08:39:43;100210.19;;;10.91;41.64
58769;BME280;44536;47.474;19.056;2023-04-26T08:42:45;100216.00;;;11.40;42.02
58769;BME280;44536;47.474;19.056;2023-04-26T08:45:49;100220.50;;;11.28;41.29
58769;BME280;44536;47.474;19.056;2023-04-26T08:49:08;100224.09;;;11.70;41.27
58769;BME280;44536;47.474;19.056;2023-04-26T08:52:19;100228.53;;;12.02;40.38
58769;BME280;44536;47.474;19.056;2023-04-26T08:55:25;100221.88;;;12.07;39.88
58769;BME280;44536;47.474;19.056;2023-04-26T08:58:28;100228.34;;;12.35;39.39
58769;BME280;44536;47.474;19.056;2023-04-26T09:01:31;100229.19;;;12.36;38.41
58769;BME280;44536;47.474;19.056;2023-04-26T09:04:35;100235.41;;;12.25;39.91
58769;BME280;44536;47.474;19.056;2023-04-26T09:07:46;100231.28;;;12.63;38.90
58769;BME280;44536;47.474;19.056;2023-04-26T09:10:48;100224.19;;;12.73;39.27
58769;BME280;44536;47.474;19.056;2023-04-26T09:13:51;100237.97;;;12.57;37.49
58769;BME280;44536;47.474;19.056;2023-04-26T09:16:54;100231.19;;;12.43;38.35
58769;BME280;44536;47.474;19.056;2023-04-26T09:19:58;100228.97;;;12.79;37.67
58769;BME280;44536;47.474;19.056;2023-04-26T09:23:04;100222.59;;;13.70;36.70
58769;BME280;44536;47.474;19.056;2023-04-26T09:26:17;100233.91;;;14.20;36.03
58769;BME280;44536;47.474;19.056;2023-04-26T09:29:20;100222.03;;;13.76;35.64
58769;BME280;44536;47.474;19.056;2023-04-26T09:32:22;100228.19;;;14.05;35.66
58769;BME280;44536;47.474;19.056;2023-04-26T09:35:42;100224.56;;;13.87;35.64
58769;BME280;44536;47.474;19.056;2023-04-26T09:38:44;100232.97;;;14.02;35.35
58769;BME280;44536;47.474;19.056;2023-04-26T09:41:46;100224.25;;;14.75;34.17
58769;BME280;44536;47.474;19.056;2023-04-26T09:44:49;100240.09;;;15.95;32.55
58769;BME280;44536;47.474;19.056;2023-04-26T09:47:52;100213.59;;;16.53;31.29
58769;BME280;44536;47.474;19.056;2023-04-26T09:50:57;100244.47;;;16.65;31.22
58769;BME280;44536;47.474;19.056;2023-04-26T09:53:59;100223.16;;;16.55;32.44
58769;BME280;44536;47.474;19.056;2023-04-26T09:57:02;100232.56;;;17.44;29.25
58769;BME280;44536;47.474;19.056;2023-04-26T10:00:05;100211.38;;;17.16;29.34
58769;BME280;44536;47.474;19.056;2023-04-26T10:03:10;100217.94;;;17.30;29.79
58769;BME280;44536;47.474;19.056;2023-04-26T10:06:14;100225.19;;;17.38;28.83
58769;BME280;44536;47.474;19.056;2023-04-26T10:09:17;100228.13;;;16.76;29.25
58769;BME280;44536;47.474;19.056;2023-04-26T10:12:19;100215.91;;;14.88;32.29
58769;BME280;44536;47.474;19.056;2023-04-26T10:15:22;100237.50;;;14.57;32.26
58769;BME280;44536;47.474;19.056;2023-04-26T10:18:24;100238.19;;;15.24;30.99
58769;BME280;44536;47.474;19.056;2023-04-26T10:21:33;100227.44;;;15.34;31.08
58769;BME280;44536;47.474;19.056;2023-04-26T10:24:38;100224.84;;;17.41;28.17
58769;BME280;44536;47.474;19.056;2023-04-26T10:30:55;100224.97;;;15.22;30.23
58769;BME280;44536;47.474;19.056;2023-04-26T10:34:17;100226.63;;;15.51;30.20
58769;BME280;44536;47.474;19.056;2023-04-26T10:37:20;100228.81;;;17.95;27.47
58769;BME280;44536;47.474;19.056;2023-04-26T10:40:37;100226.06;;;19.15;26.98
58769;BME280;44536;47.474;19.056;2023-04-26T10:43:40;100222.03;;;19.73;23.99
58769;BME280;44536;47.474;19.056;2023-04-26T10:46:49;100225.88;;;20.54;23.71
58769;BME280;44536;47.474;19.056;2023-04-26T10:50:00;100228.97;;;18.18;25.36
58769;BME280;44536;47.474;19.056;2023-04-26T10:53:07;100245.09;;;15.17;28.97
58769;BME280;44536;47.474;19.056;2023-04-26T10:56:09;100228.31;;;14.79;31.01
58769;BME280;44536;47.474;19.056;2023-04-26T10:59:18;100220.25;;;17.67;27.92
58769;BME280;44536;47.474;19.056;2023-04-26T11:05:54;100227.41;;;17.50;27.40
58769;BME280;44536;47.474;19.056;2023-04-26T11:08:58;100230.44;;;15.48;30.34
58769;BME280;44536;47.474;19.056;2023-04-26T11:12:12;100223.37;;;14.38;32.62
58769;BME280;44536;47.474;19.056;2023-04-26T11:15:17;100240.87;;;14.60;32.02
58769;BME280;44536;47.474;19.056;2023-04-26T11:18:21;100237.75;;;13.98;31.76
58769;BME280;44536;47.474;19.056;2023-04-26T11:21:24;100227.59;;;14.77;31.87
58769;BME280;44536;47.474;19.056;2023-04-26T11:24:32;100222.88;;;16.41;28.94
58769;BME280;44536;47.474;19.056;2023-04-26T11:27:37;100219.72;;;18.29;26.24
58769;BME280;44536;47.474;19.056;2023-04-26T11:30:40;100233.13;;;16.71;27.91
58769;BME280;44536;47.474;19.056;2023-04-26T11:33:42;100237.78;;;15.19;29.25
58769;BME280;44536;47.474;19.056;2023-04-26T11:36:45;100233.50;;;14.81;30.38
58769;BME280;44536;47.474;19.056;2023-04-26T11:39:48;100236.66;;;16.28;28.52
58769;BME280;44536;47.474;19.056;2023-04-26T11:42:52;100230.28;;;16.47;27.79
58769;BME280;44536;47.474;19.056;2023-04-26T11:45:58;100227.28;;;16.50;28.64
58769;BME280;44536;47.474;19.056;2023-04-26T11:49:02;100228.56;;;15.94;30.11
58769;BME280;44536;47.474;19.056;2023-04-26T11:52:05;100233.78;;;16.21;29.61
58769;BME280;44536;47.474;19.056;2023-04-26T11:55:10;100231.19;;;17.32;26.24
58769;BME280;44536;47.474;19.056;2023-04-26T11:58:13;100232.44;;;16.69;28.24
58769;BME280;44536;47.474;19.056;2023-04-26T12:01:27;100230.87;;;16.15;29.04
58769;BME280;44536;47.474;19.056;2023-04-26T12:04:30;100239.06;;;15.42;30.08
58769;BME280;44536;47.474;19.056;2023-04-26T12:07:36;100240.75;;;15.43;30.52
58769;BME280;44536;47.474;19.056;2023-04-26T12:10:39;100238.34;;;15.68;30.60
58769;BME280;44536;47.474;19.056;2023-04-26T12:13:41;100233.63;;;16.23;29.52
58769;BME280;44536;47.474;19.056;2023-04-26T12:16:45;100246.81;;;16.42;28.39
58769;BME280;44536;47.474;19.056;2023-04-26T12:19:48;100239.09;;;14.50;30.07
58769;BME280;44536;47.474;19.056;2023-04-26T12:23:04;100233.91;;;14.49;31.37
58769;BME280;44536;47.474;19.056;2023-04-26T12:26:08;100233.53;;;14.71;31.61
58769;BME280;44536;47.474;19.056;2023-04-26T12:29:14;100243.22;;;13.97;32.21
58769;BME280;44536;47.474;19.056;2023-04-26T12:32:18;100242.94;;;13.51;33.15
58769;BME280;44536;47.474;19.056;2023-04-26T12:35:24;100242.06;;;13.32;34.03
58769;BME280;44536;47.474;19.056;2023-04-26T12:38:26;100250.78;;;13.72;33.06
58769;BME280;44536;47.474;19.056;2023-04-26T12:41:29;100250.63;;;13.54;31.72
58769;BME280;44536;47.474;19.056;2023-04-26T12:44:31;100252.88;;;13.69;31.55
58769;BME280;44536;47.474;19.056;2023-04-26T12:47:33;100256.50;;;13.39;32.18
58769;BME280;44536;47.474;19.056;2023-04-26T12:50:35;100253.69;;;14.46;32.38
58769;BME280;44536;47.474;19.056;2023-04-26T12:53:38;100240.47;;;15.19;31.00
58769;BME280;44536;47.474;19.056;2023-04-26T12:56:41;100245.28;;;14.32;32.11
58769;BME280;44536;47.474;19.056;2023-04-26T12:59:45;100269.72;;;14.27;32.15
58769;BME280;44536;47.474;19.056;2023-04-26T13:02:47;100261.31;;;13.74;33.25
58769;BME280;44536;47.474;19.056;2023-04-26T13:05:50;100258.47;;;14.04;33.46
58769;BME280;44536;47.474;19.056;2023-04-26T13:08:53;100265.62;;;14.04;33.01
58769;BME280;44536;47.474;19.056;2023-04-26T13:11:56;100274.94;;;13.90;33.53
58769;BME280;44536;47.474;19.056;2023-04-26T13:14:58;100268.72;;;14.09;33.01
58769;BME280;44536;47.474;19.056;2023-04-26T13:18:01;100270.41;;;14.95;31.99
58769;BME280;44536;47.474;19.056;2023-04-26T13:21:03;100263.13;;;15.42;31.45
58769;BME280;44536;47.474;19.056;2023-04-26T13:24:06;100266.91;;;15.67;30.89
58769;BME280;44536;47.474;19.056;2023-04-26T13:27:09;100267.34;;;15.08;31.29
58769;BME280;44536;47.474;19.056;2023-04-26T13:30:12;100274.19;;;14.36;32.13
58769;BME280;44536;47.474;19.056;2023-04-26T13:33:14;100288.88;;;13.34;32.92
58769;BME280;44536;47.474;19.056;2023-04-26T13:36:22;100298.91;;;12.90;32.57
58769;BME280;44536;47.474;19.056;2023-04-26T13:39:26;100292.41;;;12.53;32.83
58769;BME280;44536;47.474;19.056;2023-04-26T13:42:29;100294.28;;;12.20;33.04
58769;BME280;44536;47.474;19.056;2023-04-26T13:45:32;100287.87;;;12.44;33.42
58769;BME280;44536;47.474;19.056;2023-04-26T13:48:38;100290.38;;;12.66;33.43
58769;BME280;44536;47.474;19.056;2023-04-26T13:51:40;100285.59;;;13.21;33.15
58769;BME280;44536;47.474;19.056;2023-04-26T13:54:43;100283.12;;;13.08;32.94
58769;BME280;44536;47.474;19.056;2023-04-26T13:57:45;100303.66;;;12.87;32.82
58769;BME280;44536;47.474;19.056;2023-04-26T14:00:47;100290.94;;;12.39;34.52
58769;BME280;44536;47.474;19.056;2023-04-26T14:03:50;100303.38;;;12.39;35.35
58769;BME280;44536;47.474;19.056;2023-04-26T14:06:57;100289.56;;;12.45;35.73
58769;BME280;44536;47.474;19.056;2023-04-26T14:09:59;100307.22;;;12.46;35.27
58769;BME280;44536;47.474;19.056;2023-04-26T14:13:02;100293.31;;;12.63;35.70
58769;BME280;44536;47.474;19.056;2023-04-26T14:16:04;100302.91;;;12.75;34.67
58769;BME280;44536;47.474;19.056;2023-04-26T14:19:07;100290.97;;;12.49;34.17
58769;BME280;44536;47.474;19.056;2023-04-26T14:22:10;100289.72;;;12.43;34.72
58769;BME280;44536;47.474;19.056;2023-04-26T14:25:14;100290.56;;;12.44;34.62
58769;BME280;44536;47.474;19.056;2023-04-26T14:28:16;100294.78;;;12.56;33.89
58769;BME280;44536;47.474;19.056;2023-04-26T14:31:19;100295.53;;;12.88;34.00
58769;BME280;44536;47.474;19.056;2023-04-26T14:34:21;100289.31;;;13.09;33.86
58769;BME280;44536;47.474;19.056;2023-04-26T14:37:24;100290.28;;;13.38;33.19
58769;BME280;44536;47.474;19.056;2023-04-26T14:40:27;100293.94;;;13.37;33.89
58769;BME280;44536;47.474;19.056;2023-04-26T14:43:29;100302.47;;;13.10;32.92
58769;BME280;44536;47.474;19.056;2023-04-26T14:46:32;100306.59;;;12.84;33.32
58769;BME280;44536;47.474;19.056;2023-04-26T14:49:34;100302.88;;;12.45;33.45
58769;BME280;44536;47.474;19.056;2023-04-26T14:52:36;100319.31;;;12.18;34.86
58769;BME280;44536;47.474;19.056;2023-04-26T14:55:39;100319.53;;;12.26;35.77
58769;BME280;44536;47.474;19.056;2023-04-26T14:58:41;100304.13;;;12.09;36.69
58769;BME280;44536;47.474;19.056;2023-04-26T15:01:44;100318.13;;;11.90;35.67
58769;BME280;44536;47.474;19.056;2023-04-26T15:04:46;100327.78;;;11.69;35.36
58769;BME280;44536;47.474;19.056;2023-04-26T15:07:49;100328.66;;;11.58;35.33
58769;BME280;44536;47.474;19.056;2023-04-26T15:10:53;100317.28;;;11.67;35.47
58769;BME280;44536;47.474;19.056;2023-04-26T15:13:55;100330.25;;;12.04;35.17
58769;BME280;44536;47.474;19.056;2023-04-26T15:16:58;100328.91;;;12.51;35.78
58769;BME280;44536;47.474;19.056;2023-04-26T15:20:00;100326.00;;;12.75;34.24
58769;BME280;44536;47.474;19.056;2023-04-26T15:23:03;100333.91;;;12.23;34.75
58769;BME280;44536;47.474;19.056;2023-04-26T15:26:05;100327.69;;;11.81;36.24
58769;BME280;44536;47.474;19.056;2023-04-26T15:29:08;100327.44;;;11.84;37.02
58769;BME280;44536;47.474;19.056;2023-04-26T15:32:10;100326.00;;;11.80;36.25
58769;BME280;44536;47.474;19.056;2023-04-26T15:35:12;100324.16;;;11.70;37.10
58769;BME280;44536;47.474;19.056;2023-04-26T15:38:16;100318.72;;;11.93;37.31
58769;BME280;44536;47.474;19.056;2023-04-26T15:41:19;100324.47;;;12.31;36.84
58769;BME280;44536;47.474;19.056;2023-04-26T15:44:21;100325.47;;;12.60;36.40
58769;BME280;44536;47.474;19.056;2023-04-26T15:47:23;100325.97;;;12.96;35.55
58769;BME280;44536;47.474;19.056;2023-04-26T15:50:26;100319.81;;;12.95;35.66
58769;BME280;44536;47.474;19.056;2023-04-26T15:53:30;100317.53;;;12.90;34.48
58769;BME280;44536;47.474;19.056;2023-04-26T15:56:32;100321.19;;;12.69;35.09
58769;BME280;44536;47.474;19.056;2023-04-26T15:59:34;100331.38;;;12.22;34.97